Terminal Aerodrome Forecast
Issued by NWS

Current Version | Previous Version | Graphics & Text | Print | Product List | Glossary On
Versions: 1 2 3 4 5 6 7 8 9 10 11 12 13 14 15 16 17 18 19 20 21 22 23 24
000
FTUS41 KRNK 051721
TAFLWB
TAF
KLWB 051721Z 0518/0618 VRB03KT P6SM SCT060 BKN100
     FM052000 VRB03KT P6SM VCSH BKN060
     FM060000 VRB03KT P6SM BKN100
     FM060900 00000KT 4SM BR SCT100
     FM061300 VRB03KT P6SM SCT060=

USA.gov is the U.S. government's official web portal to all federal, state and local government web resources and services.